Wishek, North Dakota
Current Conditions -  °F | °C
As of 9:15 PM on Tuesday 25 Nov 2014 (Local Time) from K7L2 Reporting Station
Overcast Overcast  
Wind Chill: 22°   Ceiling: 700
Heat Index: 32°   Visibility: 10mi
Dew Point: 32°   Wind: 14mph
Humidity: 100%   Direction: 330°NNW
Pressure: 29.77"   Gusts: 18mph
Location:  46.26°N, 99.56°W
Report Text: K7L2 260315Z AUTO 33012G16KT 10SM BKN007 OVC011 00/00 A2977 RMK AO2
Loading
Personal Weather Stations






























Interactive Weather Map New forecast layout! Learn more

10-Day Weather Forecast

Advertisements
Track Severe Weather on mobile